createdAt,value
2019-04-07T00:02:04.796Z,50.27
2019-04-07T00:04:34.426Z,49.83
2019-04-07T00:07:04.598Z,50.30
2019-04-07T00:09:34.466Z,50.77
2019-04-07T00:12:04.046Z,48.40
2019-04-07T00:14:33.654Z,49.37
2019-04-07T00:17:03.282Z,48.10
2019-04-07T00:19:32.981Z,51.20
2019-04-07T00:22:02.535Z,48.17
2019-04-07T00:24:32.116Z,50.67
2019-04-07T00:27:02.552Z,50.30
2019-04-07T00:29:32.597Z,48.07
2019-04-07T00:32:02.549Z,49.40
2019-04-07T00:34:32.255Z,48.20
2019-04-07T00:37:01.862Z,48.30
2019-04-07T00:39:31.453Z,50.50
2019-04-07T00:42:01.750Z,48.10
2019-04-07T00:44:31.378Z,50.03
2019-04-07T00:47:01.582Z,47.37
2019-04-07T00:49:31.156Z,48.67
2019-04-07T00:52:02.942Z,49.13
2019-04-07T00:54:32.652Z,47.20
2019-04-07T00:57:02.283Z,46.40
2019-04-07T00:59:32.040Z,49.00
2019-04-07T01:02:01.588Z,50.13
2019-04-07T01:04:31.824Z,44.60
2019-04-07T01:07:01.512Z,47.47
2019-04-07T01:09:31.083Z,48.60
2019-04-07T01:12:00.664Z,48.90
2019-04-07T01:14:30.223Z,47.37
2019-04-07T01:17:00.320Z,46.37
2019-04-07T01:19:30.520Z,46.90
2019-04-07T01:22:00.109Z,47.30
2019-04-07T01:24:29.897Z,48.47
2019-04-07T01:27:00.181Z,49.03
2019-04-07T01:29:29.880Z,47.27
2019-04-07T01:31:59.474Z,46.07
2019-04-07T01:34:29.053Z,45.40
2019-04-07T01:36:58.569Z,46.60
2019-04-07T01:39:28.381Z,45.10
2019-04-07T01:41:59.618Z,48.53
2019-04-07T01:44:47.291Z,45.40
2019-04-07T01:47:21.719Z,46.63
2019-04-07T01:49:52.937Z,47.17
2019-04-07T01:52:39.613Z,47.10
2019-04-07T01:55:13.665Z,44.77
2019-04-07T01:57:59.956Z,45.10
2019-04-07T02:00:33.961Z,45.37
2019-04-07T02:03:11.199Z,45.37
2019-04-07T02:05:42.438Z,47.13
2019-04-07T02:08:14.387Z,47.00
2019-04-07T02:10:48.213Z,47.20
2019-04-07T02:13:36.160Z,47.30
2019-04-07T02:16:23.525Z,46.57
2019-04-07T02:19:12.951Z,46.10
2019-04-07T02:21:44.944Z,43.97
2019-04-07T02:24:25.550Z,46.43
2019-04-07T02:27:15.226Z,45.37
2019-04-07T02:30:03.702Z,48.50
2019-04-07T02:32:54.394Z,47.70
2019-04-07T02:35:31.967Z,47.20
2019-04-07T02:38:04.014Z,42.17
2019-04-07T02:40:38.422Z,45.77
2019-04-07T02:43:25.759Z,45.40
2019-04-07T02:46:06.081Z,44.73
2019-04-07T02:48:37.488Z,44.03
2019-04-07T02:51:24.835Z,45.17
2019-04-07T02:54:13.734Z,45.50
2019-04-07T02:56:45.063Z,45.83
2019-04-07T02:59:20.336Z,45.87
2019-04-07T03:01:51.996Z,46.47
2019-04-07T03:04:32.927Z,46.90
2019-04-07T03:07:21.731Z,44.87
2019-04-07T03:09:57.417Z,46.33
2019-04-07T03:12:31.739Z,45.43
2019-04-07T03:15:03.258Z,47.30
2019-04-07T03:17:37.588Z,48.00
2019-04-07T03:20:25.440Z,45.90
2019-04-07T03:23:03.506Z,48.87
2019-04-07T03:25:53.080Z,46.87
2019-04-07T03:28:33.672Z,48.30
2019-04-07T03:31:06.211Z,45.63
2019-04-07T03:33:55.947Z,44.80
2019-04-07T03:37:12.594Z,49.80
2019-04-07T03:39:17.131Z,49.40
2019-04-07T03:41:52.256Z,51.00
2019-04-07T03:44:24.467Z,51.03
2019-04-07T03:46:59.653Z,51.27
2019-04-07T03:49:37.055Z,55.03
2019-04-07T03:52:09.680Z,49.07
2019-04-07T03:54:50.863Z,51.57
2019-04-07T03:57:22.163Z,50.27
2019-04-07T03:59:59.495Z,50.93
2019-04-07T04:02:48.684Z,51.53
2019-04-07T04:05:36.306Z,54.63
2019-04-07T04:08:07.602Z,50.40
2019-04-07T04:10:38.794Z,49.53
2019-04-07T04:13:10.038Z,50.03
2019-04-07T04:15:41.613Z,47.87
2019-04-07T04:18:11.946Z,52.70
2019-04-07T04:20:41.611Z,53.00
2019-04-07T04:23:11.608Z,50.50
2019-04-07T04:25:42.909Z,50.53
2019-04-07T04:28:12.701Z,49.90
2019-04-07T04:30:42.294Z,49.10
2019-04-07T04:33:12.357Z,52.00
2019-04-07T04:35:42.733Z,53.53
2019-04-07T04:38:12.430Z,49.97
2019-04-07T04:40:42.775Z,49.97
2019-04-07T04:43:13.642Z,52.20
2019-04-07T04:45:43.299Z,51.80
2019-04-07T04:48:12.858Z,48.17
2019-04-07T04:50:42.406Z,52.07
2019-04-07T04:53:12.548Z,51.03
2019-04-07T04:55:42.275Z,50.80
2019-04-07T04:58:12.601Z,49.47
2019-04-07T05:00:42.852Z,48.67
2019-04-07T05:03:12.739Z,50.60
2019-04-07T05:05:43.034Z,50.90
2019-04-07T05:08:12.923Z,51.57
2019-04-07T05:10:42.756Z,52.57
2019-04-07T05:13:12.451Z,50.10
2019-04-07T05:15:41.986Z,53.07
2019-04-07T05:18:12.049Z,53.00
2019-04-07T05:20:42.038Z,51.07
2019-04-07T05:23:12.992Z,51.63
2019-04-07T05:25:42.844Z,53.80
2019-04-07T05:28:12.556Z,51.00
2019-04-07T05:30:42.515Z,50.20
2019-04-07T05:33:14.007Z,49.50
2019-04-07T05:35:44.174Z,50.80
2019-04-07T05:38:14.687Z,50.77
2019-04-07T05:40:44.858Z,50.50
2019-04-07T05:43:14.965Z,50.47
2019-04-07T05:45:45.470Z,52.47
2019-04-07T05:48:19.472Z,49.93
2019-04-07T05:50:47.217Z,50.00
2019-04-07T05:53:17.053Z,50.00
2019-04-07T05:55:46.879Z,48.83
2019-04-07T05:58:17.010Z,48.50
2019-04-07T06:00:48.018Z,51.27
2019-04-07T06:03:18.716Z,49.90
2019-04-07T06:05:50.839Z,48.97
2019-04-07T06:08:27.657Z,50.03
2019-04-07T06:10:51.087Z,48.30
2019-04-07T06:13:20.703Z,49.70
2019-04-07T06:15:52.023Z,48.60
2019-04-07T06:18:21.573Z,50.30
2019-04-07T06:20:51.840Z,48.10
2019-04-07T06:23:23.410Z,48.00
2019-04-07T06:25:55.582Z,46.57
2019-04-07T06:28:24.859Z,48.83
2019-04-07T06:30:54.453Z,45.67
2019-04-07T06:33:24.078Z,49.00
2019-04-07T06:35:55.100Z,48.77
2019-04-07T06:38:31.841Z,49.00
2019-04-07T06:40:58.700Z,45.17
2019-04-07T06:43:27.425Z,47.70
2019-04-07T06:46:04.151Z,44.63
2019-04-07T06:48:38.053Z,45.80
2019-04-07T06:51:15.119Z,46.47
2019-04-07T06:54:02.305Z,46.00
2019-04-07T06:56:36.944Z,46.73
2019-04-07T06:59:17.667Z,45.50
2019-04-07T07:02:00.752Z,45.60
2019-04-07T07:04:48.559Z,44.60
2019-04-07T07:07:35.739Z,44.73
2019-04-07T07:10:28.140Z,44.50
2019-04-07T07:13:12.968Z,46.87
2019-04-07T07:15:48.307Z,44.17
2019-04-07T07:18:25.489Z,43.60
2019-04-07T07:21:01.677Z,40.30
2019-04-07T07:23:35.284Z,41.33
2019-04-07T07:26:04.893Z,42.00
2019-04-07T07:28:34.813Z,38.87
2019-04-07T07:31:04.490Z,41.43
2019-04-07T07:33:34.419Z,38.90
2019-04-07T07:36:04.485Z,40.77
2019-04-07T07:38:34.576Z,38.47
2019-04-07T07:41:04.744Z,38.70
2019-04-07T07:43:34.504Z,40.00
2019-04-07T07:46:04.335Z,40.40
2019-04-07T07:48:33.883Z,38.80
2019-04-07T07:51:04.087Z,39.47
2019-04-07T07:53:35.115Z,37.57
2019-04-07T07:56:08.414Z,39.13
2019-04-07T07:58:36.069Z,38.50
2019-04-07T08:01:05.745Z,34.97
2019-04-07T08:03:36.046Z,36.10
2019-04-07T08:06:08.204Z,36.37
2019-04-07T08:08:37.270Z,38.47
2019-04-07T08:11:07.553Z,35.13
2019-04-07T08:13:43.359Z,33.57
2019-04-07T08:16:08.716Z,33.60
2019-04-07T08:18:41.928Z,32.00
2019-04-07T08:21:12.291Z,32.40
2019-04-07T08:23:43.107Z,31.33
2019-04-07T08:26:12.550Z,32.63
2019-04-07T08:28:42.839Z,31.60
2019-04-07T08:31:13.195Z,31.83
2019-04-07T08:33:43.300Z,30.50
2019-04-07T08:36:14.209Z,32.67
2019-04-07T08:38:44.158Z,31.50
2019-04-07T08:41:16.423Z,33.30
2019-04-07T08:43:45.232Z,30.30
2019-04-07T08:46:15.297Z,29.50
2019-04-07T08:48:45.390Z,28.23
2019-04-07T08:51:15.592Z,30.23
2019-04-07T08:53:45.231Z,29.83
2019-04-07T08:56:15.436Z,29.20
2019-04-07T08:58:45.760Z,27.80
2019-04-07T09:01:17.366Z,27.00
2019-04-07T09:03:47.254Z,27.73
2019-04-07T09:06:17.344Z,26.83
2019-04-07T09:08:47.002Z,25.87
2019-04-07T09:11:21.629Z,23.17
2019-04-07T09:13:51.178Z,23.67
2019-04-07T09:16:29.034Z,22.63
2019-04-07T09:19:03.805Z,22.60
2019-04-07T09:21:42.880Z,21.13
2019-04-07T09:24:17.825Z,20.90
2019-04-07T09:27:05.410Z,20.70
2019-04-07T09:29:39.738Z,20.10
2019-04-07T09:32:13.879Z,18.00
2019-04-07T09:35:01.993Z,17.40
2019-04-07T09:37:36.693Z,19.07
2019-04-07T09:40:21.469Z,16.90
2019-04-07T09:43:01.845Z,19.53
2019-04-07T09:45:39.576Z,18.77
2019-04-07T09:48:19.313Z,19.10
2019-04-07T09:50:55.170Z,17.30
2019-04-07T09:53:25.658Z,16.30
2019-04-07T09:56:08.602Z,16.87
2019-04-07T09:58:41.648Z,17.23
2019-04-07T10:01:27.772Z,16.80
2019-04-07T10:04:02.648Z,16.47
2019-04-07T10:06:33.850Z,16.97
2019-04-07T10:09:06.773Z,16.27
2019-04-07T10:12:02.883Z,16.23
2019-04-07T10:14:43.915Z,16.10
2019-04-07T10:17:21.130Z,15.60
2019-04-07T10:19:58.815Z,15.40
2019-04-07T10:22:30.592Z,13.73
2019-04-07T10:25:02.430Z,14.57
2019-04-07T10:27:39.754Z,13.73
2019-04-07T10:30:28.054Z,12.30
2019-04-07T10:33:00.105Z,13.10
2019-04-07T10:35:37.315Z,12.97
2019-04-07T10:38:23.172Z,13.37
2019-04-07T10:41:10.762Z,13.20
2019-04-07T10:43:45.243Z,14.27
2019-04-07T10:46:20.319Z,14.57
2019-04-07T10:49:04.303Z,14.13
2019-04-07T10:51:47.765Z,13.90
2019-04-07T10:54:22.211Z,14.50
2019-04-07T10:57:10.064Z,14.93
2019-04-07T10:59:41.214Z,13.80
2019-04-07T11:02:30.316Z,13.77
2019-04-07T11:05:10.422Z,13.10
2019-04-07T11:07:50.480Z,13.50
2019-04-07T11:10:34.267Z,14.17
2019-04-07T11:13:00.685Z,14.70
2019-04-07T11:15:41.947Z,13.70
2019-04-07T11:18:22.661Z,14.83
2019-04-07T11:20:57.308Z,14.43
2019-04-07T11:23:40.412Z,13.90
2019-04-07T11:26:18.042Z,15.37
2019-04-07T11:28:55.598Z,15.40
2019-04-07T11:31:36.293Z,15.80
2019-04-07T11:34:11.103Z,15.40
2019-04-07T11:36:44.123Z,16.40
2019-04-07T11:39:15.905Z,15.73
2019-04-07T11:41:47.268Z,18.07
2019-04-07T11:44:28.041Z,17.83
2019-04-07T11:47:11.020Z,18.00
2019-04-07T11:49:46.091Z,17.13
2019-04-07T11:52:20.217Z,17.57
2019-04-07T11:54:53.875Z,18.47
2019-04-07T11:57:25.818Z,17.80
2019-04-07T11:59:57.593Z,17.57
2019-04-07T12:02:42.302Z,18.07
2019-04-07T12:05:16.974Z,17.13
2019-04-07T12:07:52.976Z,18.03
2019-04-07T12:10:27.027Z,18.50
2019-04-07T12:13:01.969Z,18.33
2019-04-07T12:15:49.774Z,18.00
2019-04-07T12:18:37.283Z,18.30
2019-04-07T12:21:22.564Z,17.50
2019-04-07T12:24:09.444Z,19.50
2019-04-07T12:26:42.492Z,17.20
2019-04-07T12:29:28.829Z,16.97
2019-04-07T12:32:06.006Z,16.27
2019-04-07T12:34:49.017Z,17.13
2019-04-07T12:37:26.224Z,17.10
2019-04-07T12:40:12.826Z,16.70
2019-04-07T12:43:00.566Z,16.00
2019-04-07T12:45:31.949Z,17.87
2019-04-07T12:48:21.154Z,17.13
2019-04-07T12:50:52.548Z,16.70
2019-04-07T12:53:23.809Z,16.77
2019-04-07T12:55:59.121Z,17.37
2019-04-07T12:58:46.062Z,16.27
2019-04-07T13:01:20.008Z,16.43
2019-04-07T13:03:55.814Z,17.40
2019-04-07T13:06:33.302Z,16.70
2019-04-07T13:09:04.649Z,16.03
2019-04-07T13:11:47.860Z,17.50
2019-04-07T13:14:32.652Z,16.60
2019-04-07T13:17:11.594Z,16.47
2019-04-07T13:19:46.106Z,17.67
2019-04-07T13:22:25.123Z,16.30
2019-04-07T13:25:06.144Z,17.27
2019-04-07T13:27:44.166Z,17.17
2019-04-07T13:30:21.414Z,24.67
2019-04-07T13:32:56.918Z,25.07
2019-04-07T13:35:31.714Z,15.77
2019-04-07T13:38:12.132Z,20.90
2019-04-07T13:40:58.223Z,21.63
2019-04-07T13:43:33.770Z,16.40
2019-04-07T13:46:23.266Z,20.53
2019-04-07T13:48:56.684Z,15.70
2019-04-07T13:51:40.862Z,15.97
2019-04-07T13:54:17.892Z,29.07
2019-04-07T13:57:05.535Z,15.70
2019-04-07T13:59:53.238Z,18.00
2019-04-07T14:02:29.937Z,19.67
2019-04-07T14:05:07.819Z,17.33
2019-04-07T14:07:55.319Z,16.67
2019-04-07T14:10:25.661Z,16.30
2019-04-07T14:13:07.461Z,15.73
2019-04-07T14:15:54.775Z,17.53
2019-04-07T14:18:32.073Z,16.27
2019-04-07T14:21:12.337Z,16.60
2019-04-07T14:23:52.103Z,17.20
2019-04-07T14:26:32.361Z,16.30
2019-04-07T14:29:18.552Z,15.73
2019-04-07T14:32:04.610Z,16.10
2019-04-07T14:34:51.770Z,16.23
2019-04-07T14:37:40.849Z,15.93
2019-04-07T14:40:12.393Z,15.80
2019-04-07T14:42:46.056Z,17.23
2019-04-07T14:45:24.241Z,15.97
2019-04-07T14:48:14.326Z,16.10
2019-04-07T14:51:03.694Z,15.70
2019-04-07T14:53:40.888Z,15.30
2019-04-07T14:56:18.612Z,16.97
2019-04-07T14:58:56.269Z,16.17
2019-04-07T15:01:33.635Z,15.37
2019-04-07T15:04:04.314Z,16.17
2019-04-07T15:06:34.991Z,15.27
2019-04-07T15:09:10.234Z,16.47
2019-04-07T15:11:44.454Z,15.70
2019-04-07T15:14:14.874Z,16.70
2019-04-07T15:16:45.024Z,21.40
2019-04-07T15:19:14.730Z,16.70
2019-04-07T15:21:44.274Z,17.50
2019-04-07T15:24:14.599Z,17.30
2019-04-07T15:26:47.005Z,17.43
2019-04-07T15:29:15.781Z,17.10
2019-04-07T15:31:49.057Z,15.87
2019-04-07T15:34:17.594Z,16.60
2019-04-07T15:36:48.440Z,16.10
2019-04-07T15:39:19.356Z,14.87
2019-04-07T15:41:49.564Z,15.83
2019-04-07T15:44:19.695Z,17.00
2019-04-07T15:46:53.060Z,16.80
2019-04-07T15:49:20.561Z,18.40
2019-04-07T15:51:50.168Z,16.90
2019-04-07T15:54:22.988Z,16.83
2019-04-07T15:56:51.577Z,15.87
2019-04-07T15:59:21.279Z,16.73
2019-04-07T16:01:50.902Z,17.03
2019-04-07T16:04:25.842Z,17.83
2019-04-07T16:06:52.579Z,16.80
2019-04-07T16:09:31.489Z,16.20
2019-04-07T16:11:56.938Z,16.17
2019-04-07T16:14:25.246Z,15.00
2019-04-07T16:16:54.927Z,14.73
2019-04-07T16:19:35.059Z,15.40
2019-04-07T16:21:55.727Z,15.13
2019-04-07T16:24:26.897Z,13.97
2019-04-07T16:26:58.968Z,15.40
2019-04-07T16:29:29.534Z,14.27
2019-04-07T16:32:00.002Z,16.33
2019-04-07T16:34:30.444Z,15.10
2019-04-07T16:37:00.394Z,16.00
2019-04-07T16:39:33.544Z,16.90
2019-04-07T16:42:02.064Z,16.70
2019-04-07T16:44:36.290Z,17.43
2019-04-07T16:47:04.235Z,18.57
2019-04-07T16:49:34.002Z,18.57
2019-04-07T16:52:05.531Z,17.40
2019-04-07T16:54:34.912Z,18.83
2019-04-07T16:57:05.193Z,18.83
2019-04-07T16:59:34.931Z,19.10
2019-04-07T17:02:06.299Z,17.60
2019-04-07T17:04:36.500Z,18.83
2019-04-07T17:07:11.365Z,18.93
2019-04-07T17:09:38.271Z,18.53
2019-04-07T17:12:10.920Z,18.70
2019-04-07T17:14:39.501Z,18.90
2019-04-07T17:17:09.954Z,17.97
2019-04-07T17:19:40.428Z,18.47
2019-04-07T17:22:13.969Z,18.93
2019-04-07T17:24:42.686Z,19.13
2019-04-07T17:27:15.043Z,17.80
2019-04-07T17:29:44.704Z,17.00
2019-04-07T17:32:14.359Z,18.70
2019-04-07T17:34:44.610Z,18.47
2019-04-07T17:37:15.016Z,18.27
2019-04-07T17:39:55.885Z,19.20
2019-04-07T17:42:28.155Z,17.70
2019-04-07T17:44:59.243Z,17.40
2019-04-07T17:47:31.434Z,18.67
2019-04-07T17:50:05.519Z,18.43
2019-04-07T17:52:40.889Z,17.80
2019-04-07T17:55:15.212Z,17.50
2019-04-07T17:58:03.107Z,18.20
2019-04-07T18:00:53.208Z,17.67
2019-04-07T18:03:27.505Z,18.50
2019-04-07T18:06:07.789Z,18.70
2019-04-07T18:08:44.726Z,19.00
2019-04-07T18:11:33.963Z,17.77
2019-04-07T18:14:21.283Z,19.17
2019-04-07T18:17:01.307Z,19.23
2019-04-07T18:19:43.988Z,19.20
2019-04-07T18:22:33.077Z,19.03
2019-04-07T18:25:07.101Z,17.50
2019-04-07T18:27:38.352Z,19.90
2019-04-07T18:30:21.511Z,19.60
2019-04-07T18:33:01.166Z,19.67
2019-04-07T18:35:41.998Z,18.67
2019-04-07T18:38:15.763Z,20.47
2019-04-07T18:40:46.985Z,21.50
2019-04-07T18:43:30.069Z,18.83
2019-04-07T18:46:09.967Z,19.83
2019-04-07T18:48:53.250Z,20.53
2019-04-07T18:51:47.229Z,20.23
2019-04-07T18:54:17.649Z,20.53
2019-04-07T18:57:04.034Z,19.97
2019-04-07T18:59:35.419Z,20.30
2019-04-07T19:02:11.508Z,21.43
2019-04-07T19:04:39.602Z,20.07
2019-04-07T19:07:29.198Z,19.27
2019-04-07T19:10:20.084Z,20.30
2019-04-07T19:12:49.537Z,21.93
2019-04-07T19:15:30.542Z,20.60
2019-04-07T19:18:10.608Z,20.67
2019-04-07T19:20:44.685Z,21.03
2019-04-07T19:23:21.602Z,21.77
2019-04-07T19:26:07.837Z,18.70
2019-04-07T19:28:56.018Z,20.40
2019-04-07T19:31:43.773Z,20.87
2019-04-07T19:34:28.412Z,21.40
2019-04-07T19:37:15.601Z,21.13
2019-04-07T19:40:01.119Z,21.90
2019-04-07T19:42:30.158Z,21.77
2019-04-07T19:45:22.793Z,23.40
2019-04-07T19:48:05.454Z,21.90
2019-04-07T19:50:35.016Z,22.47
2019-04-07T19:53:13.708Z,20.93
2019-04-07T19:55:54.407Z,20.53
2019-04-07T19:58:23.561Z,21.83
2019-04-07T20:01:00.128Z,21.40
2019-04-07T20:03:46.094Z,20.67
2019-04-07T20:06:36.215Z,22.83
2019-04-07T20:09:19.264Z,20.87
2019-04-07T20:11:56.162Z,20.83
2019-04-07T20:14:47.622Z,20.37
2019-04-07T20:17:16.410Z,19.47
2019-04-07T20:20:00.637Z,22.47
2019-04-07T20:22:41.397Z,19.90
2019-04-07T20:25:18.441Z,21.33
2019-04-07T20:28:06.588Z,21.60
2019-04-07T20:30:40.590Z,20.07
2019-04-07T20:33:18.265Z,21.37
2019-04-07T20:35:59.045Z,21.63
2019-04-07T20:38:31.249Z,21.00
2019-04-07T20:41:02.419Z,21.27
2019-04-07T20:43:33.630Z,22.23
2019-04-07T20:46:13.889Z,22.23
2019-04-07T20:49:00.477Z,22.73
2019-04-07T20:51:31.713Z,23.77
2019-04-07T20:54:03.920Z,20.90
2019-04-07T20:56:51.946Z,22.50
2019-04-07T20:59:48.397Z,23.53
2019-04-07T21:02:32.681Z,22.07
2019-04-07T21:05:05.610Z,21.93
2019-04-07T21:07:53.002Z,23.13
2019-04-07T21:10:24.353Z,22.77
2019-04-07T21:12:55.623Z,23.80
2019-04-07T21:15:30.030Z,24.30
2019-04-07T21:18:04.163Z,23.77
2019-04-07T21:20:41.959Z,23.23
2019-04-07T21:23:23.332Z,25.43
2019-04-07T21:26:01.496Z,24.03
2019-04-07T21:28:37.755Z,23.00
2019-04-07T21:31:16.039Z,23.60
2019-04-07T21:33:50.864Z,24.37
2019-04-07T21:36:24.634Z,25.00
2019-04-07T21:39:12.771Z,25.60
2019-04-07T21:41:45.289Z,26.13
2019-04-07T21:44:28.561Z,25.97
2019-04-07T21:47:10.562Z,25.30
2019-04-07T21:49:58.811Z,25.37
2019-04-07T21:52:29.967Z,28.57
2019-04-07T21:55:01.362Z,25.77
2019-04-07T21:57:32.520Z,26.60
2019-04-07T22:02:57.064Z,25.47
2019-04-07T22:05:34.931Z,23.97
2019-04-07T22:08:18.726Z,24.50
2019-04-07T22:10:50.257Z,24.33
2019-04-07T22:13:19.588Z,24.77
2019-04-07T22:15:54.798Z,26.03
2019-04-07T22:18:20.449Z,26.53
2019-04-07T22:20:52.305Z,25.33
2019-04-07T22:23:21.578Z,25.70
2019-04-07T22:25:52.461Z,25.00
2019-04-07T22:28:22.715Z,25.87
2019-04-07T22:30:54.048Z,25.83
2019-04-07T22:33:25.558Z,26.77
2019-04-07T22:35:54.818Z,26.60
2019-04-07T22:38:25.258Z,26.07
2019-04-07T22:40:55.078Z,26.23
2019-04-07T22:43:25.000Z,25.00
2019-04-07T22:46:07.114Z,25.07
2019-04-07T22:48:27.204Z,25.90
2019-04-07T22:50:57.189Z,24.93
2019-04-07T22:53:28.960Z,25.50
2019-04-07T22:55:58.958Z,26.73
2019-04-07T22:58:29.795Z,25.67
2019-04-07T23:00:59.548Z,26.87
2019-04-07T23:03:29.249Z,27.53
2019-04-07T23:05:59.098Z,26.30
2019-04-07T23:08:28.639Z,25.93
2019-04-07T23:10:58.203Z,27.13
2019-04-07T23:13:27.981Z,24.83
2019-04-07T23:16:08.692Z,27.63
2019-04-07T23:18:29.629Z,25.67
2019-04-07T23:20:59.914Z,26.53
2019-04-07T23:23:30.880Z,26.90
2019-04-07T23:26:01.944Z,26.10
2019-04-07T23:28:32.618Z,27.97
2019-04-07T23:31:03.231Z,26.10
2019-04-07T23:33:34.633Z,28.83
2019-04-07T23:36:04.418Z,26.97
2019-04-07T23:38:34.729Z,26.87
2019-04-07T23:41:05.380Z,27.30
2019-04-07T23:43:35.546Z,28.77
2019-04-07T23:46:05.234Z,28.67
2019-04-07T23:48:34.791Z,27.70
2019-04-07T23:51:04.562Z,28.57
2019-04-07T23:54:11.373Z,28.93
2019-04-07T23:56:41.878Z,27.97
2019-04-07T23:59:12.051Z,28.23
